Time;durP1;ratioP1;P1;durP2;ratioP2;P2;SDS_P1;SDS_P2;PMS_P1;PMS_P2;Temp;Humidity;BMP_temperature;BMP_pressure;BME280_temperature;BME280_humidity;BME280_pressure;Samples;Min_cycle;Max_cycle;Signal;HPM_P1;HPM_P2
2023/04/27 00:01:14;;;;;;;4.90;3.58;;;;;;;13.43;67.55;99319.81;5038694;28;20063;-64
2023/04/27 00:03:40;;;;;;;4.20;3.20;;;;;;;13.43;66.99;99316.31;5038499;28;20045;-68
2023/04/27 00:06:07;;;;;;;4.90;3.40;;;;;;;13.42;67.65;99325.31;5038107;28;20041;-67
2023/04/27 00:08:33;;;;;;;3.95;3.35;;;;;;;13.37;67.75;99330.38;5038270;28;20272;-65
2023/04/27 00:10:59;;;;;;;5.18;3.13;;;;;;;13.32;67.75;99335.44;5036832;28;20037;-65
2023/04/27 00:13:24;;;;;;;3.50;2.90;;;;;;;13.25;68.12;99335.38;5035869;28;20049;-65
2023/04/27 00:15:50;;;;;;;4.32;3.33;;;;;;;13.29;68.56;99339.31;5039020;28;20029;-66
2023/04/27 00:18:15;;;;;;;4.20;3.15;;;;;;;13.31;68.98;99345.25;5039077;28;20061;-67
2023/04/27 00:20:41;;;;;;;4.50;3.08;;;;;;;13.34;69.95;99347.53;5039257;28;20029;-68
2023/04/27 00:23:07;;;;;;;3.70;3.20;;;;;;;13.25;70.47;99350.50;5021119;28;20040;-68
2023/04/27 00:25:32;;;;;;;4.90;3.08;;;;;;;13.31;72.03;99350.56;5024139;28;20068;-65
2023/04/27 00:27:58;;;;;;;4.55;3.53;;;;;;;13.19;73.52;99349.44;5023318;28;20048;-64
2023/04/27 00:30:23;;;;;;;4.40;3.45;;;;;;;13.29;74.10;99355.25;5021534;28;20038;-67
2023/04/27 00:32:48;;;;;;;4.53;3.50;;;;;;;13.19;74.83;99352.09;5024088;28;20251;-67
2023/04/27 00:35:14;;;;;;;5.00;4.22;;;;;;;13.27;76.05;99356.47;5022578;28;20064;-68
2023/04/27 00:37:40;;;;;;;6.38;3.60;;;;;;;13.10;75.20;99332.75;5023290;28;20038;-67
2023/04/27 00:40:06;;;;;;;4.85;3.83;;;;;;;13.21;75.79;99362.53;5021928;28;20038;-64
2023/04/27 00:42:33;;;;;;;4.15;3.80;;;;;;;13.18;75.97;99354.94;5020635;28;20247;-65
2023/04/27 00:44:59;;;;;;;5.60;4.20;;;;;;;13.16;74.97;99363.06;5024099;28;20083;-67
2023/04/27 00:47:24;;;;;;;4.68;3.42;;;;;;;13.17;74.90;99361.25;5021385;28;20038;-64
2023/04/27 00:49:50;;;;;;;5.10;3.97;;;;;;;13.22;75.29;99366.84;5023539;28;20037;-64
2023/04/27 00:52:16;;;;;;;5.82;3.40;;;;;;;13.24;75.61;99372.78;5022528;28;20283;-65
2023/04/27 00:54:42;;;;;;;5.30;3.65;;;;;;;13.29;75.16;99376.53;5020106;28;20383;-67
2023/04/27 00:57:07;;;;;;;4.38;3.90;;;;;;;13.26;74.56;99376.09;5024148;28;20041;-68
2023/04/27 00:59:33;;;;;;;4.32;3.58;;;;;;;13.28;76.25;99387.34;5022566;28;20113;-64
2023/04/27 01:01:59;;;;;;;4.75;3.80;;;;;;;13.28;75.56;99395.34;5022098;28;20033;-64
2023/04/27 01:04:25;;;;;;;4.97;4.00;;;;;;;13.25;75.69;99393.06;5020049;28;20529;-64
2023/04/27 01:06:52;;;;;;;4.53;3.60;;;;;;;13.26;75.92;99395.53;5018740;28;20100;-67
2023/04/27 01:09:18;;;;;;;5.32;4.15;;;;;;;13.30;75.97;99399.44;5022414;28;20575;-68
2023/04/27 01:11:45;;;;;;;4.47;4.07;;;;;;;13.38;74.82;99403.84;5024459;28;20033;-68
2023/04/27 01:14:10;;;;;;;7.03;4.68;;;;;;;13.42;74.31;99408.59;5020126;28;20359;-64
2023/04/27 01:16:36;;;;;;;5.40;3.55;;;;;;;13.42;73.87;99408.59;5020495;28;20045;-67
2023/04/27 01:19:03;;;;;;;5.15;4.00;;;;;;;13.48;73.84;99422.13;5022534;28;20642;-67
2023/04/27 01:21:28;;;;;;;7.10;4.57;;;;;;;13.47;72.89;99412.50;5022943;28;20033;-68
2023/04/27 01:23:54;;;;;;;5.40;3.72;;;;;;;13.48;73.51;99422.13;5021723;28;20054;-65
2023/04/27 01:26:20;;;;;;;4.18;3.55;;;;;;;13.47;72.50;99413.34;5021162;28;20197;-64
2023/04/27 01:28:45;;;;;;;4.63;3.88;;;;;;;13.56;71.09;99425.53;5020328;28;20365;-64
2023/04/27 01:31:11;;;;;;;4.65;3.45;;;;;;;13.64;70.66;99429.91;5022712;28;20481;-67
2023/04/27 01:33:37;;;;;;;5.32;3.90;;;;;;;13.64;70.34;99432.56;5021773;28;20041;-65
2023/04/27 01:36:03;;;;;;;4.93;3.42;;;;;;;13.55;68.65;99431.88;5020934;28;20036;-64
2023/04/27 01:38:29;;;;;;;4.00;3.60;;;;;;;13.45;69.00;99427.84;5019630;28;20049;-68
2023/04/27 01:41:00;;;;;;;7.10;3.70;;;;;;;13.24;69.00;99431.28;5021837;28;20064;-68
2023/04/27 01:43:30;;;;;;;5.65;4.43;;;;;;;13.31;68.29;99438.31;5021301;28;20171;-68
2023/04/27 01:45:55;;;;;;;6.82;3.70;;;;;;;13.33;67.76;99436.31;5019599;28;20033;-65
2023/04/27 01:48:21;;;;;;;4.53;3.50;;;;;;;13.18;66.98;99435.50;5020922;28;20149;-65
2023/04/27 01:50:46;;;;;;;5.70;3.40;;;;;;;13.29;67.55;99435.03;5019732;28;20038;-65
2023/04/27 01:53:12;;;;;;;6.22;3.42;;;;;;;13.23;66.76;99440.28;5022736;28;20040;-65
2023/04/27 01:55:37;;;;;;;4.50;3.60;;;;;;;13.14;66.33;99436.88;5018920;28;20215;-68
2023/04/27 01:58:03;;;;;;;5.90;4.25;;;;;;;13.12;65.61;99441.53;5022269;28;20055;-68
2023/04/27 02:00:28;;;;;;;6.35;3.58;;;;;;;13.08;66.16;99441.09;5019893;28;20036;-65
2023/04/27 02:02:56;;;;;;;6.72;3.28;;;;;;;13.15;66.56;99441.16;5023098;28;20046;-68
2023/04/27 02:05:22;;;;;;;5.80;3.38;;;;;;;13.08;66.56;99443.75;5020065;28;20030;-64
2023/04/27 02:07:48;;;;;;;5.43;3.55;;;;;;;13.14;66.71;99442.19;5022672;28;20110;-65
2023/04/27 02:10:13;;;;;;;7.72;3.75;;;;;;;13.09;66.60;99441.91;5022136;28;20236;-64
2023/04/27 02:12:39;;;;;;;6.03;3.65;;;;;;;13.10;66.14;99443.56;5022063;28;20036;-64
2023/04/27 02:15:05;;;;;;;5.43;3.75;;;;;;;13.20;66.84;99449.44;5020160;28;20041;-68
2023/04/27 02:17:33;;;;;;;7.20;3.60;;;;;;;13.18;66.93;99443.50;5021966;28;20045;-67
2023/04/27 02:19:58;;;;;;;6.43;3.60;;;;;;;13.18;66.39;99459.44;5022217;28;20212;-68
2023/04/27 02:22:24;;;;;;;5.97;3.28;;;;;;;13.11;66.64;99451.34;5023187;28;20070;-65
2023/04/27 02:24:49;;;;;;;5.35;3.42;;;;;;;13.14;67.19;99455.47;5020339;28;20044;-67
2023/04/27 02:27:15;;;;;;;4.25;3.38;;;;;;;13.11;66.58;99455.84;5019895;28;20034;-64
2023/04/27 02:29:40;;;;;;;5.75;3.50;;;;;;;13.07;66.26;99457.22;5021040;28;20056;-67
2023/04/27 02:32:06;;;;;;;4.32;3.50;;;;;;;13.09;66.49;99471.16;5028291;28;20045;-64
2023/04/27 02:34:31;;;;;;;5.00;3.58;;;;;;;12.99;66.79;99470.59;5026704;28;20037;-64
2023/04/27 02:36:57;;;;;;;4.35;3.70;;;;;;;12.98;67.16;99464.47;5028451;28;20029;-65
2023/04/27 02:39:22;;;;;;;5.07;3.40;;;;;;;13.00;66.98;99469.59;5024668;28;20050;-65
2023/04/27 02:41:48;;;;;;;9.75;3.97;;;;;;;13.07;66.59;99481.16;5026249;28;20033;-68
2023/04/27 02:44:13;;;;;;;6.43;3.90;;;;;;;13.14;66.94;99478.56;5026388;28;20033;-68
2023/04/27 02:46:39;;;;;;;4.95;3.80;;;;;;;13.11;66.41;99480.59;5022366;28;20359;-67
2023/04/27 02:49:04;;;;;;;4.85;3.55;;;;;;;13.10;66.95;99484.25;5021977;28;20038;-68
2023/04/27 02:51:30;;;;;;;5.47;3.58;;;;;;;13.20;66.76;99491.97;5026579;28;20042;-65
2023/04/27 02:53:55;;;;;;;4.80;3.95;;;;;;;13.22;66.38;99489.13;5024821;28;20065;-65
2023/04/27 02:56:21;;;;;;;5.03;4.07;;;;;;;13.28;66.65;99483.09;5023902;28;20051;-64
2023/04/27 02:58:46;;;;;;;6.05;3.58;;;;;;;13.36;66.32;99490.94;5023465;28;20052;-65
2023/04/27 03:01:16;;;;;;;6.03;3.85;;;;;;;13.33;65.37;99492.16;5023481;28;20080;-65
2023/04/27 03:03:44;;;;;;;8.05;4.05;;;;;;;13.33;64.37;99499.31;5022808;28;20037;-64
2023/04/27 03:06:09;;;;;;;8.13;4.10;;;;;;;13.34;64.87;99493.78;5022177;28;20033;-67
2023/04/27 03:08:35;;;;;;;7.68;4.30;;;;;;;13.39;64.23;99493.25;5023276;28;20049;-64
2023/04/27 03:11:00;;;;;;;5.03;3.75;;;;;;;13.37;64.45;99487.28;5023106;28;20041;-64
2023/04/27 03:13:26;;;;;;;5.55;3.80;;;;;;;13.37;63.95;99489.94;5022295;28;20393;-68
2023/04/27 03:15:52;;;;;;;5.93;3.75;;;;;;;13.39;64.01;99494.06;5022917;28;20049;-67
2023/04/27 03:18:17;;;;;;;6.03;3.40;;;;;;;13.38;63.41;99499.56;5022149;28;20049;-67
2023/04/27 03:20:43;;;;;;;5.15;3.33;;;;;;;13.35;62.88;99498.09;5026040;28;20339;-65
2023/04/27 03:23:08;;;;;;;5.72;3.22;;;;;;;13.34;62.66;99498.28;5024459;28;20037;-65
2023/04/27 03:25:33;;;;;;;6.75;3.15;;;;;;;13.29;63.41;99501.50;5022619;28;20037;-68
2023/04/27 03:27:59;;;;;;;8.02;3.45;;;;;;;13.24;62.55;99501.25;5023846;28;20030;-68
2023/04/27 03:30:24;;;;;;;6.35;3.10;;;;;;;13.22;63.21;99508.56;5025871;28;20029;-68
2023/04/27 03:32:50;;;;;;;7.00;4.00;;;;;;;13.17;63.00;99504.81;5023511;28;20096;-64
2023/04/27 03:35:15;;;;;;;6.93;4.68;;;;;;;13.07;62.85;99511.22;5026272;28;20034;-65
2023/04/27 03:37:41;;;;;;;4.82;3.88;;;;;;;13.04;62.71;99511.56;5026128;28;20104;-68
2023/04/27 03:40:07;;;;;;;8.27;4.28;;;;;;;13.08;63.11;99512.03;5021661;28;20041;-68
2023/04/27 03:42:32;;;;;;;6.55;3.53;;;;;;;13.10;62.59;99512.69;5021902;28;20334;-65
2023/04/27 03:44:58;;;;;;;9.50;3.40;;;;;;;13.10;62.37;99515.34;5025273;28;20073;-68
2023/04/27 03:47:23;;;;;;;5.88;3.20;;;;;;;13.00;62.08;99515.59;5025349;28;20350;-64
2023/04/27 03:49:48;;;;;;;5.78;3.75;;;;;;;12.96;62.51;99519.63;5022080;28;20109;-67
2023/04/27 03:52:14;;;;;;;5.15;3.72;;;;;;;12.97;62.83;99518.63;5022542;28;20038;-64
2023/04/27 03:54:40;;;;;;;4.88;3.35;;;;;;;13.04;63.13;99530.19;5023640;28;20278;-68
2023/04/27 03:57:05;;;;;;;4.47;3.20;;;;;;;13.10;63.00;99525.97;5021260;28;20042;-65
2023/04/27 03:59:30;;;;;;;6.40;3.40;;;;;;;13.11;62.71;99531.09;5024825;28;20044;-68
2023/04/27 04:01:56;;;;;;;5.72;3.58;;;;;;;12.99;62.31;99543.19;5024420;28;20037;-67
2023/04/27 04:04:22;;;;;;;5.45;3.50;;;;;;;12.96;62.92;99537.41;5021915;28;20103;-65
2023/04/27 04:06:47;;;;;;;7.45;4.30;;;;;;;12.91;63.30;99531.81;5025216;28;20029;-68
2023/04/27 04:09:13;;;;;;;7.63;4.10;;;;;;;12.88;63.35;99532.19;5023360;28;20086;-67
2023/04/27 04:11:38;;;;;;;7.22;4.28;;;;;;;12.86;63.37;99534.19;5025180;28;20036;-67
2023/04/27 04:14:04;;;;;;;5.07;3.92;;;;;;;12.89;63.50;99542.63;5024360;28;20025;-68
2023/04/27 04:16:29;;;;;;;8.32;4.30;;;;;;;12.77;64.00;99542.25;5022124;28;20030;-67
2023/04/27 04:18:55;;;;;;;7.65;4.38;;;;;;;12.75;64.25;99546.09;5020912;28;20046;-67
2023/04/27 04:21:20;;;;;;;5.70;3.53;;;;;;;12.74;63.93;99552.41;5022735;28;20053;-67
2023/04/27 04:23:46;;;;;;;7.20;3.70;;;;;;;12.74;64.89;99553.25;5020938;28;20041;-65
2023/04/27 04:26:12;;;;;;;7.97;4.30;;;;;;;12.79;65.11;99552.69;5024518;28;20338;-65
2023/04/27 04:28:37;;;;;;;8.25;3.60;;;;;;;12.85;64.64;99551.16;5023860;28;20043;-64
2023/04/27 04:31:04;;;;;;;5.57;3.47;;;;;;;12.86;64.50;99561.59;5020982;28;20061;-67
2023/04/27 04:33:30;;;;;;;5.50;3.45;;;;;;;12.89;63.83;99560.41;5019261;28;20112;-68
2023/04/27 04:35:56;;;;;;;6.38;3.47;;;;;;;12.94;63.76;99568.66;5023846;28;20404;-67
2023/04/27 04:38:22;;;;;;;6.50;3.65;;;;;;;12.99;63.32;99568.94;5030312;28;20037;-65
2023/04/27 04:40:48;;;;;;;5.03;2.67;;;;;;;12.97;62.41;99569.13;5021685;28;20199;-65
2023/04/27 04:43:14;;;;;;;5.72;2.92;;;;;;;12.88;62.16;99556.09;5022560;28;20224;-64
2023/04/27 04:45:39;;;;;;;7.05;3.45;;;;;;;12.96;62.26;99567.47;5022501;28;20049;-64
2023/04/27 04:48:05;;;;;;;6.07;3.95;;;;;;;13.01;61.62;99578.38;5021318;28;20080;-67
2023/04/27 04:50:30;;;;;;;6.70;3.30;;;;;;;13.07;61.92;99580.31;5019037;28;20232;-67
2023/04/27 04:52:55;;;;;;;5.05;2.90;;;;;;;13.09;61.78;99586.28;5021754;28;20036;-64
2023/04/27 04:55:21;;;;;;;4.57;2.83;;;;;;;13.03;61.96;99571.06;5022545;28;20036;-67
2023/04/27 04:57:46;;;;;;;7.38;3.42;;;;;;;13.05;61.55;99584.16;5024115;28;20044;-67
2023/04/27 05:00:12;;;;;;;3.47;2.83;;;;;;;13.04;61.53;99583.34;5023882;28;20335;-66
2023/04/27 05:02:39;;;;;;;4.85;3.15;;;;;;;13.08;62.05;99594.44;5022410;28;20076;-65
2023/04/27 05:05:05;;;;;;;9.18;2.90;;;;;;;13.10;61.70;99595.91;5022821;28;20420;-68
2023/04/27 05:07:32;;;;;;;3.55;3.00;;;;;;;13.19;61.29;99596.69;5022599;28;20082;-68
2023/04/27 05:09:57;;;;;;;6.80;2.85;;;;;;;13.26;61.13;99599.44;5020323;28;20033;-67
2023/04/27 05:12:23;;;;;;;6.18;2.88;;;;;;;13.19;60.53;99599.34;5022827;28;20026;-64
2023/04/27 05:14:49;;;;;;;6.55;3.42;;;;;;;13.20;61.25;99601.00;5021324;28;20041;-67
2023/04/27 05:17:15;;;;;;;5.82;2.90;;;;;;;13.31;60.27;99607.69;5019574;28;20061;-65
2023/04/27 05:19:40;;;;;;;6.65;3.30;;;;;;;13.48;59.63;99611.81;5020158;28;20052;-68
2023/04/27 05:22:06;;;;;;;7.35;2.95;;;;;;;13.62;58.62;99600.38;5023588;28;20161;-65
2023/04/27 05:24:32;;;;;;;5.50;3.05;;;;;;;13.79;58.50;99603.66;5020636;28;20038;-67
2023/04/27 05:26:58;;;;;;;4.95;2.58;;;;;;;14.01;57.86;99601.88;5020195;28;20060;-68
2023/04/27 05:29:23;;;;;;;5.80;2.70;;;;;;;14.14;56.76;99601.19;5024250;28;20038;-65
2023/04/27 05:31:49;;;;;;;5.72;2.20;;;;;;;14.31;56.65;99603.41;5021675;28;20033;-64
2023/04/27 05:34:14;;;;;;;4.53;2.40;;;;;;;14.23;55.44;99606.19;5023198;28;20049;-68
2023/04/27 05:36:40;;;;;;;7.68;2.90;;;;;;;14.08;55.67;99605.41;5021250;28;20037;-65
2023/04/27 05:39:06;;;;;;;5.85;2.85;;;;;;;14.00;56.18;99613.53;5020799;28;20060;-68
2023/04/27 05:41:31;;;;;;;5.78;2.78;;;;;;;13.95;57.23;99611.41;5022049;28;20033;-67
2023/04/27 05:43:57;;;;;;;6.75;3.00;;;;;;;13.92;56.85;99613.63;5021530;28;20266;-67
2023/04/27 05:46:22;;;;;;;5.78;2.90;;;;;;;14.06;59.13;99610.13;5020833;28;20033;-67
2023/04/27 05:48:47;;;;;;;7.05;2.85;;;;;;;14.14;57.32;99617.97;5018166;28;20335;-67
2023/04/27 05:51:13;;;;;;;4.93;3.05;;;;;;;14.05;56.62;99617.28;5019533;28;20033;-64
2023/04/27 05:53:38;;;;;;;8.90;3.50;;;;;;;14.05;57.81;99616.44;5018337;28;20034;-67
2023/04/27 05:56:05;;;;;;;4.82;3.30;;;;;;;14.07;56.80;99619.75;5019733;28;20029;-67
2023/04/27 05:58:32;;;;;;;4.28;2.97;;;;;;;14.05;57.70;99627.91;5018311;28;20112;-65
2023/04/27 06:00:59;;;;;;;7.25;3.78;;;;;;;13.95;58.11;99629.22;5017069;28;20042;-65
2023/04/27 06:03:24;;;;;;;6.38;3.28;;;;;;;14.02;57.74;99627.47;5023845;28;20049;-67
2023/04/27 06:05:59;;;;;;;3.45;2.97;;;;;;;14.11;57.93;99621.03;5021699;28;20033;-67
2023/04/27 06:08:25;;;;;;;4.38;2.53;;;;;;;14.10;56.04;99631.84;5023687;28;20078;-67
2023/04/27 06:10:51;;;;;;;6.15;2.90;;;;;;;14.06;55.51;99632.22;5032246;28;20037;-65
2023/04/27 06:13:17;;;;;;;4.40;2.92;;;;;;;14.13;57.42;99629.66;5033774;28;20489;-68
2023/04/27 06:15:42;;;;;;;4.13;2.80;;;;;;;14.24;56.31;99629.16;5022095;28;20034;-67
2023/04/27 06:18:08;;;;;;;4.25;2.50;;;;;;;14.22;54.92;99628.53;5023317;28;20061;-67
2023/04/27 06:20:33;;;;;;;5.28;2.80;;;;;;;14.26;55.50;99634.28;5022144;28;20041;-65
2023/04/27 06:23:00;;;;;;;4.35;2.33;;;;;;;14.27;54.43;99625.28;5026408;28;20331;-64
2023/04/27 06:25:27;;;;;;;5.05;2.50;;;;;;;14.16;53.62;99629.28;5025157;28;20033;-67
2023/04/27 06:27:53;;;;;;;4.70;2.70;;;;;;;14.23;54.78;99629.34;5024483;28;20037;-65
2023/04/27 06:30:18;;;;;;;6.05;2.75;;;;;;;14.19;54.44;99623.56;5022436;28;20065;-67
2023/04/27 06:32:44;;;;;;;5.18;2.65;;;;;;;14.21;54.88;99631.38;5023282;28;20037;-67
2023/04/27 06:35:10;;;;;;;3.53;2.60;;;;;;;14.18;53.86;99632.56;5026856;28;20033;-67
2023/04/27 06:37:35;;;;;;;4.95;2.88;;;;;;;14.11;54.28;99633.50;5024272;28;20029;-67
2023/04/27 06:40:02;;;;;;;6.95;2.63;;;;;;;14.09;53.65;99632.88;5027708;28;20049;-65
2023/04/27 06:42:28;;;;;;;5.80;2.45;;;;;;;14.07;54.39;99638.38;5032394;28;20527;-65
2023/04/27 06:44:54;;;;;;;4.28;2.40;;;;;;;14.01;54.21;99639.13;5025995;28;20049;-65
2023/04/27 06:47:20;;;;;;;4.93;2.60;;;;;;;13.96;54.08;99644.19;5027253;28;20030;-66
2023/04/27 06:49:45;;;;;;;4.78;3.03;;;;;;;13.92;54.95;99646.41;5026296;28;20044;-67
2023/04/27 06:52:11;;;;;;;7.97;2.60;;;;;;;13.86;54.66;99641.00;5022130;28;20029;-64
2023/04/27 06:54:36;;;;;;;3.90;3.13;;;;;;;13.80;56.13;99645.22;5022483;28;20045;-64
2023/04/27 06:57:02;;;;;;;5.45;2.72;;;;;;;13.81;56.28;99654.03;5026982;28;20040;-65
2023/04/27 06:59:27;;;;;;;7.35;3.40;;;;;;;13.80;55.96;99644.41;5025807;28;20041;-65
2023/04/27 07:01:53;;;;;;;3.45;2.55;;;;;;;13.83;55.33;99644.84;5022911;28;20037;-64
2023/04/27 07:04:18;;;;;;;4.20;2.80;;;;;;;13.86;56.22;99649.81;5020252;28;20041;-68
2023/04/27 07:06:43;;;;;;;6.55;2.90;;;;;;;13.88;55.79;99650.44;5022781;28;20048;-65
2023/04/27 07:09:09;;;;;;;5.85;2.95;;;;;;;13.97;56.81;99659.16;5025649;28;20038;-68
2023/04/27 07:11:34;;;;;;;4.38;3.30;;;;;;;14.04;56.29;99654.72;5026279;28;20303;-68
2023/04/27 07:14:00;;;;;;;3.33;3.00;;;;;;;14.06;55.68;99652.72;5023866;28;20046;-66
2023/04/27 07:16:25;;;;;;;7.47;2.67;;;;;;;14.05;55.10;99651.88;5025237;28;20030;-68
2023/04/27 07:18:51;;;;;;;4.47;2.40;;;;;;;14.10;55.84;99654.00;5025441;28;20060;-64
2023/04/27 07:21:16;;;;;;;4.72;2.60;;;;;;;14.00;54.35;99653.44;5020462;28;20410;-64
2023/04/27 07:23:41;;;;;;;5.25;3.10;;;;;;;13.97;55.90;99654.66;5021614;28;20041;-68
2023/04/27 07:26:07;;;;;;;7.38;2.80;;;;;;;14.02;55.89;99651.44;5024694;28;20135;-67
2023/04/27 07:28:37;;;;;;;4.63;2.85;;;;;;;14.08;56.94;99645.34;5023218;28;20079;-68
2023/04/27 07:31:05;;;;;;;5.95;2.70;;;;;;;14.19;56.35;99646.72;5021870;28;20104;-65
2023/04/27 07:33:34;;;;;;;7.95;3.00;;;;;;;14.21;56.38;99644.69;5020321;28;20347;-67
2023/04/27 07:36:01;;;;;;;4.53;3.00;;;;;;;14.32;56.61;99654.84;5024571;28;20135;-68
2023/04/27 07:38:28;;;;;;;5.40;3.53;;;;;;;14.46;56.91;99654.00;5025658;28;20057;-68
2023/04/27 07:40:54;;;;;;;7.30;3.60;;;;;;;14.52;55.98;99647.09;5022144;28;20057;-65
2023/04/27 07:43:21;;;;;;;5.43;3.03;;;;;;;14.64;56.02;99658.94;5027486;28;20037;-68
2023/04/27 07:45:48;;;;;;;5.03;2.80;;;;;;;14.68;55.20;99653.03;5023073;28;20033;-65
2023/04/27 07:48:13;;;;;;;6.47;3.20;;;;;;;14.64;54.92;99649.09;5022263;28;20398;-65
2023/04/27 07:50:39;;;;;;;5.47;2.85;;;;;;;14.85;54.94;99650.94;5023000;28;20050;-67
2023/04/27 07:53:05;;;;;;;6.75;3.13;;;;;;;14.95;55.47;99654.09;5027055;28;20323;-67
2023/04/27 07:55:30;;;;;;;6.40;3.03;;;;;;;15.08;54.99;99655.22;5024455;28;20029;-65
2023/04/27 07:57:56;;;;;;;4.00;2.63;;;;;;;15.01;53.86;99655.97;5021822;28;20049;-68
2023/04/27 08:00:22;;;;;;;5.68;2.78;;;;;;;15.16;52.87;99660.41;5020996;28;20033;-65
2023/04/27 08:02:49;;;;;;;4.05;2.80;;;;;;;15.31;54.20;99653.13;5022657;28;20197;-68
2023/04/27 08:05:14;;;;;;;4.18;2.65;;;;;;;15.48;53.88;99654.47;5021170;28;20022;-67
2023/04/27 08:07:39;;;;;;;5.10;3.17;;;;;;;15.49;51.85;99663.31;5025023;28;20038;-64
2023/04/27 08:10:07;;;;;;;6.78;3.05;;;;;;;15.61;52.19;99661.78;5024438;28;21000;-65
2023/04/27 08:12:32;;;;;;;3.00;2.70;;;;;;;15.56;52.03;99662.31;5029251;28;20037;-67
2023/04/27 08:14:58;;;;;;;4.88;3.22;;;;;;;15.61;51.89;99665.28;5021601;28;20037;-68
2023/04/27 08:17:24;;;;;;;3.47;3.17;;;;;;;15.67;50.92;99657.53;5022348;28;20044;-68
2023/04/27 08:19:49;;;;;;;4.20;3.03;;;;;;;15.69;51.75;99648.28;5022855;28;20049;-67
2023/04/27 08:22:15;;;;;;;5.18;3.00;;;;;;;15.77;48.84;99652.66;5020774;28;20030;-65
2023/04/27 08:24:40;;;;;;;4.28;2.75;;;;;;;15.59;50.46;99647.78;5024543;28;20047;-68
2023/04/27 08:27:06;;;;;;;6.22;3.05;;;;;;;15.84;49.61;99645.50;5025534;28;20075;-68
2023/04/27 08:29:31;;;;;;;6.35;2.85;;;;;;;15.96;50.37;99638.56;5024614;28;20460;-67
2023/04/27 08:31:59;;;;;;;4.57;2.67;;;;;;;16.16;48.60;99649.31;5021584;28;20363;-67
2023/04/27 08:34:24;;;;;;;5.82;2.53;;;;;;;15.86;46.74;99640.78;5022342;28;20316;-65
2023/04/27 08:36:50;;;;;;;6.72;3.00;;;;;;;16.10;48.08;99648.28;5020489;28;20033;-65
2023/04/27 08:39:16;;;;;;;3.92;2.58;;;;;;;15.85;45.19;99642.63;5022274;28;20072;-65
2023/04/27 08:41:43;;;;;;;3.63;2.63;;;;;;;15.76;47.01;99640.31;5024932;28;20065;-68
2023/04/27 08:44:09;;;;;;;5.68;2.88;;;;;;;15.83;46.05;99642.00;5024070;28;20041;-68
2023/04/27 08:46:36;;;;;;;5.40;3.50;;;;;;;15.92;46.48;99637.31;5022685;28;20331;-68
2023/04/27 08:49:02;;;;;;;5.47;3.05;;;;;;;15.99;46.80;99637.34;5022694;28;20239;-68
2023/04/27 08:51:28;;;;;;;3.60;2.72;;;;;;;16.14;46.44;99635.34;5020729;28;20041;-64
2023/04/27 08:53:56;;;;;;;4.50;2.67;;;;;;;16.17;47.94;99629.59;5021458;28;20223;-68
2023/04/27 08:56:26;;;;;;;3.70;2.60;;;;;;;16.39;44.77;99632.94;5021188;28;20335;-68
2023/04/27 08:58:53;;;;;;;4.32;2.88;;;;;;;16.52;44.38;99632.97;5024364;28;20263;-68
2023/04/27 09:01:19;;;;;;;3.95;2.90;;;;;;;16.58;44.11;99629.47;5021428;28;20097;-64
2023/04/27 09:03:45;;;;;;;5.05;2.65;;;;;;;16.76;44.74;99626.25;5024281;28;20046;-65
2023/04/27 09:06:12;;;;;;;5.15;2.53;;;;;;;16.73;43.23;99626.69;5024087;28;20037;-65
2023/04/27 09:08:55;;;;;;;4.43;2.70;;;;;;;16.64;45.08;99623.31;5024250;28;20216;-68
2023/04/27 09:11:30;;;;;;;6.43;2.63;;;;;;;16.74;43.32;99620.31;5020646;28;20355;-66
2023/04/27 09:13:57;;;;;;;5.22;2.33;;;;;;;16.50;43.95;99610.97;5019347;28;20052;-65
2023/04/27 09:16:24;;;;;;;5.00;2.33;;;;;;;16.28;43.54;99616.47;5020709;28;20121;-67
2023/04/27 09:18:49;;;;;;;7.43;2.80;;;;;;;16.40;44.71;99618.56;5024662;28;20116;-65
2023/04/27 09:21:23;;;;;;;6.38;2.63;;;;;;;16.49;44.36;99618.16;5023387;28;20338;-68
2023/04/27 09:23:48;;;;;;;5.75;2.85;;;;;;;16.68;42.70;99616.59;5023084;28;20057;-68
2023/04/27 09:26:23;;;;;;;5.65;2.83;;;;;;;16.81;44.50;99619.28;5022919;28;20073;-65
2023/04/27 09:28:50;;;;;;;3.65;2.80;;;;;;;17.00;45.78;99614.94;5020838;28;20046;-65
2023/04/27 09:31:16;;;;;;;3.92;2.38;;;;;;;17.02;44.84;99622.78;5019840;28;20052;-68
2023/04/27 09:33:44;;;;;;;4.57;3.05;;;;;;;16.61;43.79;99616.53;5022577;28;20072;-68
2023/04/27 09:36:10;;;;;;;3.22;2.92;;;;;;;16.87;41.62;99613.09;5021355;28;20040;-67
2023/04/27 09:38:35;;;;;;;4.22;2.88;;;;;;;17.08;45.07;99612.06;5024569;28;20042;-68
2023/04/27 09:41:01;;;;;;;5.88;3.05;;;;;;;16.99;43.47;99607.97;5022770;28;20332;-64
2023/04/27 09:43:28;;;;;;;4.47;2.88;;;;;;;17.05;44.30;99604.47;5023109;28;20072;-67
2023/04/27 09:45:55;;;;;;;3.85;2.97;;;;;;;17.04;44.55;99607.34;5020025;28;20046;-65
2023/04/27 09:48:21;;;;;;;4.93;2.70;;;;;;;16.99;43.91;99607.97;5022521;28;20050;-65
2023/04/27 09:50:48;;;;;;;6.97;2.95;;;;;;;16.89;47.14;99605.69;5022450;28;20033;-65
2023/04/27 09:53:23;;;;;;;3.17;2.75;;;;;;;16.88;46.22;99608.56;5028249;28;20048;-68
2023/04/27 09:55:57;;;;;;;3.63;2.95;;;;;;;16.91;45.08;99606.31;5019106;28;20029;-66
2023/04/27 09:58:23;;;;;;;4.47;2.85;;;;;;;17.07;46.64;99596.22;5022281;28;20108;-65
2023/04/27 10:01:06;;;;;;;4.68;3.00;;;;;;;17.13;44.47;99600.75;5020217;28;20054;-64
2023/04/27 10:03:39;;;;;;;6.18;2.90;;;;;;;16.99;44.50;99593.75;5020097;28;20419;-67
2023/04/27 10:06:19;;;;;;;3.67;3.20;;;;;;;17.25;44.15;99596.41;5023394;28;20109;-65
2023/04/27 10:08:45;;;;;;;5.47;2.78;;;;;;;17.32;44.72;99589.19;5019662;28;20254;-67
2023/04/27 10:11:16;;;;;;;2.75;2.42;;;;;;;17.16;45.62;99595.78;5022898;28;20025;-67
2023/04/27 10:13:52;;;;;;;4.22;2.80;;;;;;;17.20;45.97;99588.19;5022922;28;20212;-67
2023/04/27 10:16:18;;;;;;;4.82;3.08;;;;;;;17.19;46.26;99584.69;5021320;28;20311;-65
2023/04/27 10:18:54;;;;;;;4.07;2.88;;;;;;;17.35;44.78;99591.44;5022287;28;20243;-64
2023/04/27 10:21:20;;;;;;;4.40;2.90;;;;;;;17.55;46.17;99578.81;5022210;28;20267;-65
2023/04/27 10:23:50;;;;;;;3.42;3.00;;;;;;;17.53;44.66;99572.84;5023428;28;20053;-65
2023/04/27 10:26:26;;;;;;;4.80;3.05;;;;;;;17.43;45.68;99585.03;5020344;28;20041;-65
2023/04/27 10:29:09;;;;;;;3.97;2.72;;;;;;;17.42;44.48;99573.50;5028082;28;20217;-67
2023/04/27 10:31:35;;;;;;;5.65;3.15;;;;;;;17.33;46.05;99576.63;5020704;28;20056;-67
2023/04/27 10:34:10;;;;;;;4.47;2.80;;;;;;;17.30;43.67;99580.53;5023251;28;20327;-65
2023/04/27 10:36:40;;;;;;;4.18;2.75;;;;;;;17.53;45.02;99577.38;5018844;28;20030;-64
2023/04/27 10:39:21;;;;;;;3.50;2.60;;;;;;;17.61;41.92;99579.84;5022195;28;20073;-67
2023/04/27 10:41:55;;;;;;;5.00;2.53;;;;;;;17.69;43.74;99568.94;5022011;28;20287;-67
2023/04/27 10:44:29;;;;;;;4.00;2.47;;;;;;;17.98;41.90;99575.59;5023120;28;20045;-67
2023/04/27 10:46:56;;;;;;;4.93;2.67;;;;;;;17.69;40.17;99570.81;5019489;28;20033;-65
2023/04/27 10:49:22;;;;;;;3.42;2.67;;;;;;;17.59;43.31;99579.22;5022601;28;20041;-67
2023/04/27 10:51:50;;;;;;;5.13;2.58;;;;;;;17.58;43.23;99588.28;5023928;28;20047;-67
2023/04/27 10:54:16;;;;;;;2.50;2.30;;;;;;;17.80;43.92;99576.31;5022519;28;20302;-65
2023/04/27 10:56:41;;;;;;;2.63;2.28;;;;;;;18.02;43.70;99589.41;5022306;28;20029;-66
2023/04/27 10:59:08;;;;;;;4.50;2.60;;;;;;;18.07;41.19;99579.69;5025170;28;20037;-68
2023/04/27 11:01:33;;;;;;;3.72;2.30;;;;;;;18.17;41.13;99577.34;5023192;28;20025;-65
2023/04/27 11:04:00;;;;;;;2.58;2.38;;;;;;;17.93;40.79;99578.09;5025675;28;20413;-65
2023/04/27 11:06:27;;;;;;;5.15;2.83;;;;;;;18.04;43.83;99579.28;5024507;28;20029;-67
2023/04/27 11:08:53;;;;;;;2.70;1.83;;;;;;;18.15;40.52;99583.97;5024053;28;20144;-67
2023/04/27 11:11:19;;;;;;;3.17;2.50;;;;;;;18.02;41.47;99584.88;5027161;28;20343;-67
2023/04/27 11:13:48;;;;;;;3.17;2.35;;;;;;;18.10;40.76;99592.66;5025856;28;20041;-67
2023/04/27 11:16:14;;;;;;;4.22;2.10;;;;;;;18.03;37.74;99583.00;5022271;28;20133;-68
2023/04/27 11:18:41;;;;;;;2.65;2.28;;;;;;;17.92;38.92;99589.84;5025049;28;20117;-64
2023/04/27 11:21:11;;;;;;;2.90;2.35;;;;;;;18.06;40.31;99588.75;5023613;28;20331;-67
2023/04/27 11:23:38;;;;;;;3.38;2.42;;;;;;;18.08;40.58;99589.38;5028155;28;20275;-67
2023/04/27 11:26:16;;;;;;;3.03;2.33;;;;;;;18.00;39.87;99588.78;5021287;28;20034;-67
2023/04/27 11:29:12;;;;;;;4.07;2.53;;;;;;;18.04;39.45;99590.00;5026933;28;20037;-67
2023/04/27 11:31:46;;;;;;;6.25;2.83;;;;;;;17.91;39.37;99593.56;5025566;28;20409;-67